Time;durP1;ratioP1;P1;durP2;ratioP2;P2;SDS_P1;SDS_P2;PMS_P1;PMS_P2;Temp;Humidity;BMP_temperature;BMP_pressure;BME280_temperature;BME280_humidity;BME280_pressure;Samples;Min_cycle;Max_cycle;Signal;HPM_P1;HPM_P2
2024/04/14 00:01:29;;;;;;;5.97;4.67;;;;;;;17.92;54.40;99273.25;7380911;26;20298;-84
2024/04/14 00:04:53;;;;;;;5.00;4.50;;;;;;;17.83;54.48;99293.81;7385410;26;20222;-83
2024/04/14 00:08:16;;;;;;;10.03;4.53;;;;;;;17.64;54.23;99277.81;7384347;26;20230;-85
2024/04/14 00:11:39;;;;;;;7.73;5.07;;;;;;;17.45;55.11;99277.09;7386137;26;20286;-83
2024/04/14 00:14:59;;;;;;;5.97;5.03;;;;;;;17.47;55.45;99260.50;7385154;26;20225;-84
2024/04/14 00:18:23;;;;;;;5.73;5.17;;;;;;;17.48;56.14;99278.53;7411351;26;20352;-83
2024/04/14 00:21:46;;;;;;;8.77;5.17;;;;;;;17.33;55.67;99265.34;7434527;26;20237;-83
2024/04/14 00:25:12;;;;;;;6.73;5.33;;;;;;;16.94;57.26;99257.88;7435543;26;20302;-83
2024/04/14 00:28:35;;;;;;;5.30;4.80;;;;;;;16.95;57.38;99245.91;7433868;26;20256;-83
2024/04/14 00:31:58;;;;;;;6.00;5.10;;;;;;;17.36;56.50;99247.69;7432957;26;20304;-84
2024/04/14 00:35:21;;;;;;;6.53;4.97;;;;;;;17.07;56.46;99244.00;7419586;26;20739;-84
2024/04/14 00:38:44;;;;;;;5.10;4.60;;;;;;;17.28;56.50;99248.06;7409587;26;20280;-83
2024/04/14 00:42:07;;;;;;;5.47;4.63;;;;;;;17.80;55.47;99253.34;7434691;26;20233;-83
2024/04/14 00:45:31;;;;;;;7.27;4.33;;;;;;;17.70;54.36;99244.94;7434517;26;20271;-83
2024/04/14 00:48:54;;;;;;;4.87;4.40;;;;;;;17.28;55.90;99256.22;7432929;26;20312;-84
2024/04/14 00:52:15;;;;;;;7.60;4.13;;;;;;;17.87;54.73;99253.22;7434604;26;20268;-84
2024/04/14 00:55:39;;;;;;;4.17;3.77;;;;;;;17.86;53.65;99251.56;7434028;26;20615;-82
2024/04/14 00:59:02;;;;;;;5.13;4.47;;;;;;;17.37;55.37;99247.44;7425652;26;20234;-83
2024/04/14 01:02:25;;;;;;;4.50;4.10;;;;;;;17.57;55.08;99261.56;7387237;26;20230;-84
2024/04/14 01:05:46;;;;;;;8.20;4.47;;;;;;;17.78;54.18;99251.94;7385674;26;20229;-83
2024/04/14 01:09:09;;;;;;;5.50;4.43;;;;;;;17.71;53.76;99253.97;7405127;26;20753;-85
2024/04/14 01:12:30;;;;;;;5.10;4.70;;;;;;;17.55;54.44;99254.69;7431337;26;20240;-83
2024/04/14 01:15:56;;;;;;;7.97;4.80;;;;;;;17.57;53.98;99258.03;7435592;26;20239;-83
2024/04/14 01:19:19;;;;;;;5.50;4.40;;;;;;;17.60;53.49;99242.00;7436044;26;20778;-83
2024/04/14 01:22:42;;;;;;;4.57;4.17;;;;;;;17.38;54.38;99245.56;7400078;26;20245;-83
2024/04/14 01:26:08;;;;;;;6.53;4.60;;;;;;;16.88;56.81;99236.97;7386167;26;20226;-81
2024/04/14 01:29:28;;;;;;;5.63;4.30;;;;;;;16.86;56.53;99244.56;7380725;26;20765;-81
2024/04/14 01:32:52;;;;;;;5.87;5.10;;;;;;;16.81;56.33;99238.19;7386247;26;20218;-83
2024/04/14 01:36:15;;;;;;;5.17;4.67;;;;;;;16.72;56.34;99234.97;7387561;26;20229;-83
2024/04/14 01:39:38;;;;;;;5.77;4.53;;;;;;;17.00;56.22;99234.28;7386934;26;20752;-84
2024/04/14 01:43:04;;;;;;;7.33;3.80;;;;;;;16.76;55.83;99230.69;7388114;26;20229;-81
2024/04/14 01:46:24;;;;;;;4.43;4.00;;;;;;;16.98;55.36;99245.41;7434544;26;20237;-84
2024/04/14 01:49:47;;;;;;;4.30;3.90;;;;;;;16.84;56.15;99245.88;7436416;26;20338;-83
2024/04/14 01:53:10;;;;;;;5.13;4.27;;;;;;;17.14;54.86;99244.72;7436717;26;20225;-83
2024/04/14 01:56:33;;;;;;;6.37;4.47;;;;;;;17.04;55.40;99240.94;7436513;26;20229;-83
2024/04/14 01:59:57;;;;;;;5.00;3.70;;;;;;;17.35;53.64;99229.69;7430041;26;20237;-85
2024/04/14 02:03:20;;;;;;;5.87;4.13;;;;;;;17.38;53.82;99243.69;7428838;26;20290;-85
2024/04/14 02:06:43;;;;;;;4.73;4.30;;;;;;;17.16;54.13;99234.41;7428655;26;20240;-84
2024/04/14 02:10:07;;;;;;;5.53;4.23;;;;;;;17.45;53.69;99249.84;7428178;26;20259;-84
2024/04/14 02:13:30;;;;;;;4.27;3.93;;;;;;;17.50;53.21;99252.69;7448532;26;20224;-85
2024/04/14 02:16:53;;;;;;;8.07;5.50;;;;;;;16.97;54.32;99238.31;7425318;26;20263;-84
2024/04/14 02:20:17;;;;;;;4.90;4.33;;;;;;;16.60;55.09;99236.84;7428299;26;20279;-84
2024/04/14 02:23:38;;;;;;;5.07;4.17;;;;;;;15.93;57.78;99230.88;7428260;26;20232;-83
2024/04/14 02:27:02;;;;;;;7.00;4.17;;;;;;;16.70;55.56;99223.47;7425733;26;20297;-84
2024/04/14 02:30:25;;;;;;;3.80;3.47;;;;;;;16.94;54.38;99233.34;7428652;26;20232;-84
2024/04/14 02:33:51;;;;;;;5.03;3.80;;;;;;;17.08;54.18;99218.41;7428178;26;20225;-83
2024/04/14 02:37:12;;;;;;;6.50;4.10;;;;;;;16.85;54.65;99234.75;7428311;26;20287;-84
2024/04/14 02:40:35;;;;;;;4.23;3.90;;;;;;;16.41;55.86;99218.91;7427842;26;20232;-85
2024/04/14 02:43:56;;;;;;;6.33;4.13;;;;;;;16.74;55.03;99223.84;7429063;26;20221;-82
2024/04/14 02:47:19;;;;;;;6.63;4.50;;;;;;;16.49;55.02;99224.00;7427362;26;20920;-83
2024/04/14 02:50:42;;;;;;;8.43;4.10;;;;;;;16.23;57.08;99212.66;7429096;26;20766;-82
2024/04/14 02:54:05;;;;;;;4.90;3.93;;;;;;;16.59;55.86;99226.16;7428966;26;20240;-80
2024/04/14 02:57:28;;;;;;;4.23;3.83;;;;;;;16.73;54.89;99211.28;7428963;26;20213;-83
2024/04/14 03:01:01;;;;;;;4.47;3.90;;;;;;;16.96;54.23;99216.75;7418796;26;20283;-83
2024/04/14 03:04:25;;;;;;;4.53;3.87;;;;;;;16.93;53.88;99219.97;7430724;26;20240;-83
2024/04/14 03:07:48;;;;;;;4.93;4.37;;;;;;;16.48;54.94;99216.06;7430013;26;20252;-82
2024/04/14 03:11:11;;;;;;;4.97;4.47;;;;;;;16.41;55.21;99218.06;7431174;26;20244;-80
2024/04/14 03:14:34;;;;;;;5.83;3.73;;;;;;;16.49;55.02;99224.00;7430574;26;20271;-81
2024/04/14 03:17:57;;;;;;;5.47;4.30;;;;;;;16.61;54.39;99213.97;7430592;26;20264;-81
2024/04/14 03:21:18;;;;;;;5.40;4.90;;;;;;;16.06;55.75;99209.75;7431589;26;20291;-81
2024/04/14 03:24:44;;;;;;;7.30;4.30;;;;;;;16.45;54.56;99219.28;7432827;26;20568;-82
2024/04/14 03:28:08;;;;;;;4.17;3.63;;;;;;;16.47;54.91;99219.88;7429410;26;20229;-83
2024/04/14 03:31:31;;;;;;;4.93;3.90;;;;;;;16.19;55.94;99220.47;7429363;26;20236;-85
2024/04/14 03:34:51;;;;;;;5.87;4.20;;;;;;;16.17;55.52;99217.13;7429099;26;20240;-83
2024/04/14 03:38:15;;;;;;;4.60;3.80;;;;;;;16.29;55.93;99212.53;7433478;26;20292;-83
2024/04/14 03:41:40;;;;;;;5.20;4.80;;;;;;;16.74;53.67;99202.06;7438316;26;20237;-82
2024/04/14 03:45:07;;;;;;;4.30;3.93;;;;;;;16.18;55.53;99218.81;7438397;26;20228;-81
2024/04/14 03:48:30;;;;;;;7.40;3.90;;;;;;;15.94;56.46;99211.59;7438300;26;20220;-80
2024/04/14 03:51:53;;;;;;;5.03;4.23;;;;;;;16.62;54.92;99212.91;7439367;26;20232;-82
2024/04/14 03:55:17;;;;;;;5.17;4.23;;;;;;;15.96;55.63;99201.31;7440149;26;20232;-81
2024/04/14 03:58:40;;;;;;;7.53;4.13;;;;;;;15.39;57.29;99212.69;7436396;26;20232;-80
2024/04/14 04:02:03;;;;;;;4.43;4.00;;;;;;;16.35;55.22;99218.97;7437376;26;20245;-81
2024/04/14 04:05:27;;;;;;;4.60;3.83;;;;;;;16.26;54.93;99223.06;7439445;26;20221;-81
2024/04/14 04:08:50;;;;;;;4.33;3.77;;;;;;;16.20;55.01;99218.53;7444801;26;20232;-83
2024/04/14 04:12:13;;;;;;;6.67;4.23;;;;;;;16.17;54.98;99217.13;7445444;26;20240;-83
2024/04/14 04:15:39;;;;;;;5.27;4.17;;;;;;;16.21;55.35;99221.03;7434333;26;20267;-81
2024/04/14 04:19:02;;;;;;;4.33;3.93;;;;;;;16.17;54.85;99228.00;7430844;26;20626;-82
2024/04/14 04:22:27;;;;;;;5.30;4.30;;;;;;;15.86;55.89;99235.56;7432259;26;20228;-82
2024/04/14 04:25:50;;;;;;;7.47;3.97;;;;;;;16.37;54.28;99244.06;7432389;26;20768;-82
2024/04/14 04:29:13;;;;;;;4.40;3.63;;;;;;;16.31;54.06;99232.22;7429760;26;20760;-81
2024/04/14 04:32:36;;;;;;;5.07;4.40;;;;;;;16.25;54.13;99237.72;7432079;26;20261;-81
2024/04/14 04:36:00;;;;;;;6.77;4.67;;;;;;;15.97;55.23;99222.00;7428329;26;20292;-81
2024/04/14 04:39:20;;;;;;;4.07;3.77;;;;;;;15.45;56.02;99230.78;7415900;26;20257;-80
2024/04/14 04:42:43;;;;;;;5.00;3.73;;;;;;;15.64;55.96;99228.91;7391137;26;20285;-82
2024/04/14 04:46:04;;;;;;;6.53;4.80;;;;;;;15.48;56.55;99234.94;7421420;26;20284;-82
2024/04/14 04:49:30;;;;;;;5.80;4.80;;;;;;;15.16;57.98;99236.09;7417040;26;20951;-81
2024/04/14 04:52:50;;;;;;;5.60;4.13;;;;;;;15.62;56.37;99228.31;7426429;26;20229;-83
2024/04/14 04:56:13;;;;;;;5.47;4.30;;;;;;;15.28;57.10;99224.25;7398142;26;20314;-81
2024/04/14 04:59:34;;;;;;;3.83;3.53;;;;;;;15.77;56.28;99231.47;7384913;26;20241;-82
2024/04/14 05:02:57;;;;;;;4.37;3.97;;;;;;;15.68;55.95;99236.38;7401746;26;20282;-87
2024/04/14 05:06:20;;;;;;;5.43;4.10;;;;;;;16.41;54.00;99224.34;7422880;26;20233;-85
2024/04/14 05:09:43;;;;;;;5.53;4.10;;;;;;;16.53;53.37;99240.72;7402017;26;20237;-83
2024/04/14 05:13:04;;;;;;;4.70;4.23;;;;;;;15.93;54.72;99248.00;7375816;26;20283;-83
2024/04/14 05:16:27;;;;;;;4.37;3.93;;;;;;;16.10;55.20;99231.91;7376761;26;20709;-82
2024/04/14 05:19:48;;;;;;;6.57;3.90;;;;;;;16.17;54.85;99238.88;7375924;26;21080;-83
2024/04/14 05:23:14;;;;;;;5.93;4.03;;;;;;;16.42;53.95;99238.78;7417609;26;20240;-83
2024/04/14 05:26:37;;;;;;;3.80;3.47;;;;;;;16.12;55.21;99244.22;7424283;26;20286;-84
2024/04/14 05:30:00;;;;;;;4.20;3.80;;;;;;;16.45;53.30;99224.72;7422098;26;20286;-84
2024/04/14 05:33:21;;;;;;;6.73;3.80;;;;;;;16.60;53.69;99249.59;7397599;26;20288;-83
2024/04/14 05:36:44;;;;;;;3.93;3.63;;;;;;;16.77;52.95;99256.88;7376250;26;20736;-83
2024/04/14 05:40:08;;;;;;;4.13;3.73;;;;;;;17.29;52.57;99260.59;7395916;26;20296;-82
2024/04/14 05:43:31;;;;;;;4.80;3.43;;;;;;;17.21;51.83;99250.06;7410875;26;20241;-82
2024/04/14 05:46:55;;;;;;;3.93;3.50;;;;;;;17.21;52.89;99266.44;7375454;26;20281;-83
2024/04/14 05:50:16;;;;;;;4.17;3.87;;;;;;;17.58;52.11;99271.41;7375671;26;20644;-82
2024/04/14 05:53:39;;;;;;;4.17;3.77;;;;;;;17.58;52.60;99263.22;7381744;26;20237;-82
2024/04/14 05:57:05;;;;;;;6.33;3.97;;;;;;;17.64;52.69;99259.53;7413003;26;20287;-83
2024/04/14 06:00:28;;;;;;;4.27;3.93;;;;;;;18.09;51.68;99246.03;7394506;26;20243;-83
2024/04/14 06:03:51;;;;;;;4.40;4.00;;;;;;;18.31;50.74;99257.94;7374131;26;21007;-83
2024/04/14 06:07:12;;;;;;;3.97;3.60;;;;;;;18.46;49.76;99277.41;7374652;26;20704;-82
2024/04/14 06:10:35;;;;;;;5.03;3.27;;;;;;;18.68;50.06;99275.59;7375116;26;20294;-83
2024/04/14 06:14:01;;;;;;;3.60;3.27;;;;;;;19.15;48.77;99269.63;7375153;26;20235;-83
2024/04/14 06:17:21;;;;;;;6.03;3.30;;;;;;;19.31;48.03;99257.88;7375742;26;20226;-82
2024/04/14 06:20:45;;;;;;;3.13;2.83;;;;;;;19.18;48.60;99276.50;7377313;26;20285;-83
2024/04/14 06:24:08;;;;;;;3.70;3.33;;;;;;;19.21;48.87;99279.59;7376725;26;20227;-82
2024/04/14 06:27:29;;;;;;;3.93;3.57;;;;;;;18.98;49.06;99273.44;7376567;26;20268;-84
2024/04/14 06:30:55;;;;;;;7.07;3.87;;;;;;;19.31;48.81;99276.19;7382800;26;20234;-84
2024/04/14 06:34:19;;;;;;;5.70;3.90;;;;;;;19.81;48.58;99275.03;7375492;26;20335;-84
2024/04/14 06:37:39;;;;;;;4.47;4.00;;;;;;;19.88;48.07;99286.59;7381934;26;20237;-84
2024/04/14 06:41:05;;;;;;;4.40;4.00;;;;;;;20.59;47.51;99255.47;7375628;26;20274;-84
2024/04/14 06:44:29;;;;;;;4.87;4.37;;;;;;;21.06;45.33;99279.28;7413695;26;20263;-85
2024/04/14 06:47:52;;;;;;;4.53;3.60;;;;;;;21.64;43.91;99255.28;7418531;26;20257;-87
2024/04/14 06:51:18;;;;;;;4.37;3.67;;;;;;;21.58;43.46;99253.59;7381729;26;20257;-87
2024/04/14 06:54:39;;;;;;;4.47;3.73;;;;;;;21.83;43.85;99270.25;7391598;26;20229;-88
2024/04/14 06:58:02;;;;;;;6.53;3.60;;;;;;;21.28;44.39;99219.63;7417098;26;20246;-91
2024/04/14 07:01:56;;;;;;;5.30;3.60;;;;;;;22.77;41.92;99265.41;7437941;26;20241;-88
2024/04/14 07:05:19;;;;;;;3.70;3.37;;;;;;;22.44;42.07;99211.75;7433285;26;20246;-87
2024/04/14 07:08:43;;;;;;;4.17;3.50;;;;;;;22.39;43.37;99243.84;7428011;26;20228;-87
2024/04/14 07:12:07;;;;;;;5.73;3.70;;;;;;;23.22;42.57;99243.44;7429831;26;20288;-90
2024/04/14 07:15:27;;;;;;;4.67;4.07;;;;;;;23.44;42.27;99221.97;7428054;26;20358;-88
2024/04/14 07:18:51;;;;;;;4.10;3.30;;;;;;;24.00;41.82;99251.03;7427808;26;20818;-87
2024/04/14 07:22:24;;;;;;;4.13;3.63;;;;;;;24.28;42.06;99255.88;7384815;26;20275;-87
2024/04/14 07:25:48;;;;;;;3.30;3.00;;;;;;;24.95;39.76;99243.09;7379058;26;20273;-88
2024/04/14 07:29:08;;;;;;;4.63;3.10;;;;;;;25.33;39.93;99258.00;7378592;26;20223;-87
2024/04/14 07:32:33;;;;;;;4.00;3.70;;;;;;;25.73;37.71;99246.56;7378658;26;20266;-87
2024/04/14 07:35:54;;;;;;;5.17;3.57;;;;;;;26.06;37.60;99256.72;7377767;26;20227;-88
2024/04/14 07:39:20;;;;;;;4.67;3.70;;;;;;;25.52;38.31;99240.44;7379183;26;20237;-87
2024/04/14 07:42:41;;;;;;;5.50;3.43;;;;;;;26.19;38.09;99247.72;7381928;26;20274;-87
2024/04/14 07:46:05;;;;;;;4.87;3.10;;;;;;;26.55;37.61;99210.22;7380258;26;20237;-88
2024/04/14 07:49:28;;;;;;;4.47;3.23;;;;;;;26.68;36.86;99202.00;7381000;26;20239;-86
2024/04/14 07:52:51;;;;;;;5.80;3.40;;;;;;;27.17;36.33;99256.88;7383758;26;20265;-89
2024/04/14 07:56:15;;;;;;;3.77;3.13;;;;;;;26.76;36.43;99223.44;7386240;26;20742;-87
2024/04/14 07:59:38;;;;;;;3.43;2.80;;;;;;;27.31;34.63;99249.44;7387604;26;20706;-88
2024/04/14 08:02:59;;;;;;;4.60;2.70;;;;;;;27.33;33.23;99234.19;7388621;26;20802;-88
2024/04/14 08:06:22;;;;;;;5.40;2.90;;;;;;;27.28;33.32;99198.25;7381032;26;20314;-88
2024/04/14 08:09:45;;;;;;;5.30;2.90;;;;;;;27.26;33.96;99211.56;7376631;26;20242;-89
2024/04/14 08:13:11;;;;;;;3.27;2.53;;;;;;;27.36;32.92;99216.13;7377065;26;20221;-89
2024/04/14 08:16:31;;;;;;;3.07;2.20;;;;;;;27.23;32.37;99236.28;7377806;26;20231;-89
2024/04/14 08:19:55;;;;;;;2.83;1.90;;;;;;;28.05;32.18;99244.47;7378233;26;20265;-88
2024/04/14 08:23:18;;;;;;;3.50;2.07;;;;;;;26.91;31.95;99197.47;7379653;26;20739;-90
2024/04/14 08:26:38;;;;;;;3.40;2.17;;;;;;;27.02;32.76;99210.84;7386274;26;20712;-88
2024/04/14 08:30:04;;;;;;;2.53;2.17;;;;;;;27.54;32.77;99245.72;7389577;26;20282;-86
2024/04/14 08:33:28;;;;;;;2.67;2.17;;;;;;;27.39;32.96;99238.50;7387169;26;20334;-89
2024/04/14 08:36:48;;;;;;;3.73;2.10;;;;;;;28.40;32.29;99242.94;7428443;26;20277;-88
2024/04/14 08:40:12;;;;;;;3.20;2.10;;;;;;;28.56;31.05;99185.97;7429153;26;20282;-89
2024/04/14 08:43:36;;;;;;;3.03;2.20;;;;;;;28.45;31.24;99238.13;7430396;26;20273;-89
2024/04/14 08:47:47;;;;;;;2.70;2.10;;;;;;;28.88;31.57;99236.56;7433860;26;20234;-87
2024/04/14 08:51:22;;;;;;;2.87;2.10;;;;;;;28.09;31.87;99214.19;7425369;26;20239;-87
2024/04/14 08:59:00;;;;;;;2.40;2.17;;;;;;;28.79;31.14;99221.78;7382196;26;20246;-89
2024/04/14 09:06:36;;;;;;;2.43;2.10;;;;;;;28.75;31.31;99218.00;7349555;26;20220;-89
2024/04/14 09:09:59;;;;;;;2.93;2.43;;;;;;;28.01;32.47;99192.72;7392143;26;20284;-88
2024/04/14 09:13:25;;;;;;;2.30;2.00;;;;;;;28.26;31.67;99219.91;7392208;26;20262;-87
2024/04/14 09:16:48;;;;;;;2.90;2.63;;;;;;;27.55;32.94;99245.38;7391754;26;20640;-86
2024/04/14 09:20:10;;;;;;;3.87;2.20;;;;;;;27.20;33.28;99200.91;7390749;26;20305;-88
2024/04/14 09:23:36;;;;;;;3.30;2.33;;;;;;;27.72;33.31;99192.97;7393845;26;20277;-87
2024/04/14 09:27:01;;;;;;;3.67;2.30;;;;;;;28.23;31.89;99185.31;7391390;26;20322;-88
2024/04/14 09:30:25;;;;;;;2.70;2.50;;;;;;;27.64;33.22;99234.44;7391882;26;20260;-87
2024/04/14 09:33:48;;;;;;;2.40;2.13;;;;;;;27.76;33.31;99230.03;7416841;26;20752;-87
2024/04/14 09:37:14;;;;;;;2.50;2.30;;;;;;;28.76;32.72;99205.75;7395820;26;20289;-87
2024/04/14 09:40:38;;;;;;;4.47;2.43;;;;;;;27.56;33.28;99210.22;7390491;26;20294;-86
2024/04/14 09:44:01;;;;;;;3.13;2.50;;;;;;;27.64;33.94;99237.19;7391297;26;20236;-87
2024/04/14 09:47:26;;;;;;;3.47;2.70;;;;;;;28.49;32.79;99227.22;7390892;26;20232;-86
2024/04/14 09:50:48;;;;;;;2.77;2.50;;;;;;;28.26;33.36;99217.16;7389235;26;20247;-87
2024/04/14 09:54:15;;;;;;;3.13;2.67;;;;;;;28.78;31.78;99228.47;7386915;26;20248;-87
2024/04/14 09:57:38;;;;;;;3.50;2.60;;;;;;;27.65;33.93;99236.09;7385844;26;20233;-87
2024/04/14 10:14:46;;;;;;;3.97;2.70;;;;;;;29.33;32.05;99176.31;7436058;26;20247;-87
2024/04/14 10:18:13;;;;;;;4.83;2.80;;;;;;;29.86;31.86;99207.69;7435379;26;20711;-86
2024/04/14 10:21:34;;;;;;;4.70;2.57;;;;;;;29.41;31.87;99193.03;7437465;26;20236;-85
2024/04/14 10:29:35;;;;;;;2.73;2.30;;;;;;;30.58;29.99;99184.66;7098412;27;20275;-85
2024/04/14 10:33:07;;;;;;;3.00;2.80;;;;;;;29.85;30.83;99194.91;7166473;27;20341;-88
2024/04/14 10:36:32;;;;;;;2.80;2.50;;;;;;;29.71;31.90;99178.34;7191303;27;20242;-86
2024/04/14 10:39:58;;;;;;;4.67;2.63;;;;;;;30.43;30.86;99143.38;7187414;27;20257;-91
2024/04/14 10:43:24;;;;;;;2.80;2.60;;;;;;;29.76;31.94;99186.53;7190687;27;20237;-90
2024/04/14 10:46:46;;;;;;;4.73;3.13;;;;;;;29.09;33.39;99176.66;7167840;27;20281;-85
2024/04/14 10:50:13;;;;;;;3.93;2.90;;;;;;;28.08;35.02;99143.22;7155575;27;20859;-84
2024/04/14 10:53:36;;;;;;;3.57;2.70;;;;;;;29.05;33.80;99135.94;7160528;27;20284;-84
2024/04/14 10:56:56;;;;;;;3.60;2.70;;;;;;;28.65;34.74;99115.53;7187329;27;20678;-85
2024/04/14 11:00:35;;;;;;;3.63;2.63;;;;;;;29.07;33.35;99142.81;7185092;27;20260;-85
2024/04/14 11:03:55;;;;;;;4.10;2.67;;;;;;;29.70;32.71;99120.28;7053427;27;20300;-85
2024/04/14 11:07:21;;;;;;;2.73;2.37;;;;;;;29.76;32.46;99132.88;7231541;27;20326;-85
2024/04/14 11:10:45;;;;;;;5.00;2.73;;;;;;;29.91;31.32;99105.44;7232658;27;20764;-84
2024/04/14 11:14:05;;;;;;;3.77;2.43;;;;;;;28.86;33.34;99119.47;7231602;27;20751;-85
2024/04/14 11:17:30;;;;;;;2.90;2.60;;;;;;;28.62;34.25;99107.03;7234709;27;20249;-85
2024/04/14 12:21:25;;;;;;;2.43;2.20;;;;;;;30.49;30.67;99089.19;7388344;26;20250;-82
2024/04/14 12:24:48;;;;;;;3.00;2.23;;;;;;;30.43;30.43;99048.75;7411870;26;20244;-82
2024/04/14 12:28:14;;;;;;;3.90;2.50;;;;;;;29.51;32.23;99075.22;7409764;26;20289;-83
2024/04/14 12:31:38;;;;;;;4.70;2.50;;;;;;;30.17;30.57;99061.84;7425088;26;20295;-84
2024/04/14 12:35:01;;;;;;;4.73;3.57;;;;;;;30.57;29.88;99060.53;7425731;26;20259;-83
2024/04/14 12:38:27;;;;;;;5.37;3.20;;;;;;;30.58;30.18;99067.75;7431776;26;20275;-81
2024/04/14 12:41:51;;;;;;;3.93;2.60;;;;;;;30.41;30.66;99047.44;7417623;26;20247;-82
2024/04/14 12:45:12;;;;;;;2.60;2.40;;;;;;;28.69;32.51;99030.53;7403474;26;20756;-81
2024/04/14 12:48:54;;;;;;;3.53;2.43;;;;;;;29.53;32.21;99067.41;7411913;26;20241;-83
2024/04/14 12:52:25;;;;;;;3.47;2.60;;;;;;;29.64;32.27;99052.91;7361513;26;20279;-83
2024/04/14 12:55:51;;;;;;;3.43;2.30;;;;;;;30.23;31.30;99006.84;7396877;26;20259;-83
2024/04/14 12:59:34;;;;;;;2.40;2.20;;;;;;;30.52;30.53;99013.38;7400646;26;20524;-84
2024/04/14 13:02:57;;;;;;;3.00;2.70;;;;;;;29.90;30.58;99008.47;7395262;26;20732;-83
2024/04/14 13:06:26;;;;;;;3.17;2.40;;;;;;;30.03;31.44;99033.34;7425759;26;20286;-85
2024/04/14 13:14:16;;;;;;;2.90;2.30;;;;;;;29.96;31.36;99021.88;7253870;26;20229;-86
2024/04/14 13:17:37;;;;;;;2.53;2.10;;;;;;;29.40;32.09;98982.19;7419763;26;20580;-84
2024/04/14 13:24:44;;;;;;;3.93;2.40;;;;;;;29.08;32.40;98957.59;7366922;26;20258;-84
2024/04/14 13:28:05;;;;;;;2.57;2.27;;;;;;;29.20;32.48;99019.69;7429812;26;20570;-84
2024/04/14 13:32:18;;;;;;;2.83;2.40;;;;;;;29.37;32.20;99005.06;7403063;26;20246;-84
2024/04/14 13:39:21;;;;;;;2.47;2.27;;;;;;;28.96;32.33;98977.63;7431695;26;20294;-86
2024/04/14 13:42:42;;;;;;;3.00;2.33;;;;;;;29.17;32.17;98963.97;7411023;26;20241;-87
2024/04/14 13:46:20;;;;;;;3.37;1.93;;;;;;;28.81;32.23;98950.25;7416308;26;20246;-85
2024/04/14 13:49:47;;;;;;;2.57;2.20;;;;;;;29.18;31.92;98965.63;7407778;26;20285;-86
2024/04/14 13:53:10;;;;;;;5.70;2.43;;;;;;;29.30;31.75;98979.72;7410973;26;20241;-86
2024/04/14 13:56:33;;;;;;;3.17;2.30;;;;;;;29.67;31.30;98991.09;7427212;26;20277;-82
2024/04/14 13:59:56;;;;;;;3.10;2.30;;;;;;;29.36;31.23;98926.44;7428778;26;20273;-84
2024/04/14 14:03:19;;;;;;;3.00;2.27;;;;;;;29.49;31.30;98964.38;7427691;26;20239;-83
2024/04/14 14:06:43;;;;;;;2.50;2.30;;;;;;;29.20;31.65;98911.38;7387694;26;20242;-84
2024/04/14 14:10:07;;;;;;;2.83;2.30;;;;;;;29.02;31.47;98906.91;7382290;26;20694;-84
2024/04/14 14:13:31;;;;;;;2.73;2.53;;;;;;;28.75;32.14;98959.03;7397191;26;20249;-84
2024/04/14 14:16:51;;;;;;;2.57;2.37;;;;;;;28.67;31.37;98913.44;7386272;26;20258;-84
2024/04/14 14:20:15;;;;;;;2.60;2.40;;;;;;;29.38;30.96;98907.47;7404141;26;20318;-84
2024/04/14 14:27:17;;;;;;;2.10;1.93;;;;;;;28.46;32.05;98931.78;7352952;26;20220;-84
2024/04/14 14:30:40;;;;;;;2.43;2.20;;;;;;;28.61;32.08;98936.91;7382726;26;20322;-84
2024/04/14 14:37:43;;;;;;;2.43;2.23;;;;;;;28.60;31.34;98881.78;7392720;26;20230;-83
2024/04/14 14:41:10;;;;;;;2.97;2.20;;;;;;;29.03;30.89;98919.69;7386091;26;20244;-84
2024/04/14 14:44:33;;;;;;;3.07;2.10;;;;;;;28.06;32.64;98894.00;7391018;26;20230;-84
2024/04/14 14:47:53;;;;;;;2.53;2.30;;;;;;;29.01;31.93;98893.38;7435693;26;20745;-83
2024/04/14 14:51:17;;;;;;;2.53;2.30;;;;;;;29.34;31.10;98870.41;7434466;26;20304;-87
2024/04/14 14:54:40;;;;;;;2.97;2.47;;;;;;;30.11;30.46;98903.78;7422191;26;20236;-84
2024/04/14 14:58:06;;;;;;;3.33;2.40;;;;;;;29.24;31.19;98856.81;7397696;26;20339;-84
2024/04/14 15:01:28;;;;;;;3.83;2.30;;;;;;;29.08;31.23;98857.59;7416561;26;20315;-85
2024/04/14 15:04:51;;;;;;;3.80;2.40;;;;;;;29.24;30.70;98856.00;7431693;26;20299;-86
2024/04/14 15:08:12;;;;;;;3.63;2.70;;;;;;;29.68;30.44;98862.09;7412582;26;20237;-85
2024/04/14 15:11:35;;;;;;;3.23;2.40;;;;;;;29.06;30.66;98844.03;7403634;26;20653;-86
2024/04/14 15:15:01;;;;;;;3.80;2.30;;;;;;;29.25;31.15;98843.75;7429482;26;20247;-85
2024/04/14 15:18:26;;;;;;;3.30;2.23;;;;;;;28.92;31.70;98848.91;7417451;26;20346;-86
2024/04/14 15:21:48;;;;;;;3.50;2.20;;;;;;;28.61;31.26;98834.25;7415647;26;20619;-86
2024/04/14 15:25:11;;;;;;;3.40;2.47;;;;;;;29.06;31.32;98813.50;7429047;26;20282;-86
2024/04/14 15:28:31;;;;;;;4.33;2.27;;;;;;;29.14;31.45;98872.97;7399042;26;20244;-85
2024/04/14 15:31:57;;;;;;;4.37;2.60;;;;;;;29.30;30.97;98829.72;7402672;26;20277;-85
2024/04/14 15:35:21;;;;;;;2.43;2.23;;;;;;;29.33;31.12;98829.03;7417509;26;20594;-86
2024/04/14 15:38:44;;;;;;;4.50;2.40;;;;;;;28.88;31.57;98860.94;7426247;26;20235;-84
2024/04/14 15:42:05;;;;;;;3.47;2.17;;;;;;;28.52;32.70;98858.38;7431864;26;20281;-84
2024/04/14 15:45:30;;;;;;;5.20;2.10;;;;;;;28.82;32.29;98837.25;7429276;26;20274;-83
2024/04/14 15:48:56;;;;;;;2.30;2.10;;;;;;;29.07;32.19;98837.34;7426256;26;20586;-81
2024/04/14 15:52:16;;;;;;;2.90;2.50;;;;;;;28.56;32.48;98798.34;7427665;26;20278;-84
2024/04/14 15:55:39;;;;;;;2.43;2.10;;;;;;;28.44;32.74;98789.00;7426078;26;20235;-82
2024/04/14 15:59:17;;;;;;;2.50;2.30;;;;;;;28.46;32.52;98797.81;7424960;26;20274;-85
2024/04/14 16:02:38;;;;;;;2.20;2.00;;;;;;;28.50;32.41;98777.44;7222763;27;20304;-82
2024/04/14 16:06:04;;;;;;;2.40;2.20;;;;;;;28.28;33.87;98808.00;7199175;27;21114;-82
2024/04/14 16:09:27;;;;;;;2.33;2.00;;;;;;;28.21;33.89;98762.44;7216863;27;20294;-82
2024/04/14 16:12:48;;;;;;;3.63;2.40;;;;;;;28.61;33.56;98816.81;7219286;27;20784;-83
2024/04/14 16:16:11;;;;;;;3.57;2.37;;;;;;;27.86;33.84;98738.47;7232682;27;20273;-83
2024/04/14 16:19:32;;;;;;;3.27;2.40;;;;;;;28.76;33.27;98766.38;7209553;27;20753;-83
2024/04/14 16:22:59;;;;;;;2.77;2.43;;;;;;;28.27;34.07;98798.03;7216474;27;20239;-83
2024/04/14 16:26:22;;;;;;;4.10;2.27;;;;;;;28.49;33.77;98758.34;7213189;27;20325;-81
2024/04/14 16:29:46;;;;;;;3.73;2.40;;;;;;;29.11;32.97;98788.34;7217980;27;20757;-82
2024/04/14 16:33:09;;;;;;;2.67;2.30;;;;;;;27.93;34.14;98753.53;7204348;27;20234;-82
2024/04/14 16:36:32;;;;;;;5.53;3.23;;;;;;;27.56;35.15;98739.25;7222414;27;20242;-82
2024/04/14 16:39:55;;;;;;;4.60;2.67;;;;;;;27.97;34.45;98737.91;7335588;26;20639;-82
2024/04/14 16:43:19;;;;;;;3.43;2.50;;;;;;;27.97;34.38;98723.22;7408111;26;20285;-82
2024/04/14 16:46:39;;;;;;;3.87;2.57;;;;;;;28.46;33.61;98734.84;7399716;26;20237;-81
2024/04/14 16:50:02;;;;;;;3.87;2.43;;;;;;;28.43;33.67;98773.50;7400627;26;20279;-81
2024/04/14 16:53:23;;;;;;;3.03;2.63;;;;;;;28.50;34.25;98777.44;7417541;26;20232;-81
2024/04/14 16:56:49;;;;;;;2.30;2.10;;;;;;;28.52;33.46;98729.94;7412257;26;20294;-81
2024/04/14 17:00:14;;;;;;;4.40;2.17;;;;;;;28.40;33.64;98713.94;7400692;26;20237;-82
2024/04/14 17:03:34;;;;;;;5.40;2.30;;;;;;;28.72;33.44;98763.44;7401046;26;20220;-86
2024/04/14 17:06:58;;;;;;;3.63;2.20;;;;;;;28.50;33.04;98719.19;7406607;26;20603;-81
2024/04/14 17:10:21;;;;;;;2.83;2.10;;;;;;;28.38;33.36;98712.63;7412989;26;20710;-81
2024/04/14 17:13:47;;;;;;;2.77;2.20;;;;;;;28.73;33.67;98759.50;7403833;26;20287;-83
2024/04/14 17:17:07;;;;;;;5.40;2.40;;;;;;;28.75;33.33;98746.16;7403537;26;20245;-83
2024/04/14 17:20:31;;;;;;;2.87;2.30;;;;;;;28.37;32.97;98697.91;7411143;26;20246;-83
2024/04/14 17:23:55;;;;;;;2.73;2.17;;;;;;;28.59;32.68;98713.63;7419441;26;20781;-81
2024/04/14 17:27:15;;;;;;;6.47;2.90;;;;;;;28.11;33.75;98713.66;7401858;26;20239;-82
2024/04/14 17:30:41;;;;;;;3.37;2.20;;;;;;;27.84;34.78;98732.44;7410248;26;20238;-82
2024/04/14 17:34:06;;;;;;;3.07;2.40;;;;;;;27.54;34.67;98713.84;7409632;26;20285;-82
2024/04/14 17:37:27;;;;;;;3.47;2.10;;;;;;;27.43;35.35;98746.50;7408762;26;20256;-81
2024/04/14 17:40:54;;;;;;;3.03;2.70;;;;;;;27.07;36.13;98717.22;7415185;26;20281;-84
2024/04/14 18:02:12;;;;;;;16.43;12.97;;;;;;;27.44;35.07;98725.16;7323143;27;20249;-83
2024/04/14 18:19:34;;;;;;;5.57;3.77;;;;;;;26.15;39.85;98693.84;7127988;27;20242;-81